Dades meteomassalio
Diari Summary for Setembre 22, 2017 Units:  Metric    English   Both
« Previous Day
Next Day »
Diari Semanal Mensual Anual Personalitzat
  Maxima: Minima: Mijana:
Temperatura: 21.1 °C 12.8 °C 16.3 °C
Rosada: 16.2 °C 10.2 °C 13.3 °C
Humitat: 91 % 64 % 83 %
Velocitat del vent: 19.3 km/h 0.0 km/h 2.3 km/h
Racha vent: 19.3 km/h - -
Vent:- - SW
Pressio: 1023.9 hPa 1019.2 hPa -
Pluja: 0.5 mm    
Historical Graphs
 
 
Tabular Data for Setembre 22, 2017
Time Temperature Dew Point Pressure Wind Wind Speed Wind Gust Humidity Rainfall Rate (Hourly) solar Conditions
00:03 15.0 °C 11.8 °C 1019.2 hPa Calm     81 % 0.0 mm 0.0 W/m2 CLR
00:08 15.0 °C 11.8 °C 1019.2 hPa Calm     81 % 0.0 mm 0.0 W/m2 CLR
00:13 15.0 °C 11.8 °C 1019.2 hPa Calm     81 % 0.0 mm 0.0 W/m2 CLR
00:18 15.0 °C 11.9 °C 1019.2 hPa Calm     82 % 0.0 mm 0.0 W/m2 CLR
00:23 15.0 °C 11.8 °C 1019.2 hPa Calm     81 % 0.0 mm 0.0 W/m2 CLR
00:28 15.0 °C 11.8 °C 1019.5 hPa Calm     81 % 0.0 mm 0.0 W/m2 CLR
00:33 15.0 °C 11.9 °C 1019.5 hPa Calm     82 % 0.0 mm 0.0 W/m2 CLR
00:38 15.0 °C 12.1 °C 1019.5 hPa Calm     83 % 0.0 mm 0.0 W/m2 CLR
00:43 15.6 °C 12.7 °C 1019.5 hPa Calm     83 % 0.0 mm 0.0 W/m2 CLR
00:48 15.6 °C 12.5 °C 1019.5 hPa Calm     82 % 0.0 mm 0.0 W/m2 CLR
00:53 15.6 °C 12.5 °C 1019.5 hPa Calm     82 % 0.0 mm 0.0 W/m2 CLR
00:58 15.6 °C 12.5 °C 1019.5 hPa Calm     82 % 0.0 mm 0.0 W/m2 CLR
01:03 15.6 °C 12.7 °C 1019.9 hPa Calm     83 % 0.0 mm 0.0 W/m2 CLR
01:08 15.6 °C 12.9 °C 1019.9 hPa Calm     84 % 0.0 mm 0.0 W/m2 CLR
01:13 15.6 °C 12.9 °C 1019.9 hPa Calm     84 % 0.0 mm 0.0 W/m2 CLR
01:18 15.6 °C 12.7 °C 1019.9 hPa Calm     83 % 0.0 mm 0.0 W/m2 CLR
01:23 16.1 °C 13.2 °C 1019.9 hPa Calm     83 % 0.0 mm 0.0 W/m2 CLR
01:28 16.1 °C 13.4 °C 1019.9 hPa Calm     84 % 0.0 mm 0.0 W/m2 CLR
01:33 16.1 °C 13.4 °C 1019.9 hPa Calm     84 % 0.0 mm 0.0 W/m2 CLR
01:38 16.1 °C 13.4 °C 1019.5 hPa Calm     84 % 0.0 mm 0.0 W/m2 CLR
01:43 16.1 °C 13.6 °C 1019.5 hPa Calm     85 % 0.0 mm 0.0 W/m2 CLR
01:48 16.1 °C 13.4 °C 1019.5 hPa Calm     84 % 0.0 mm 0.0 W/m2 CLR
01:53 16.1 °C 13.6 °C 1019.9 hPa Calm     85 % 0.0 mm 0.0 W/m2 CLR
01:58 16.1 °C 13.8 °C 1019.9 hPa Calm     86 % 0.0 mm 0.0 W/m2 CLR
02:03 16.1 °C 13.9 °C 1019.9 hPa Calm     87 % 0.0 mm 0.0 W/m2 CLR
02:08 16.1 °C 14.1 °C 1019.9 hPa Calm     88 % 0.0 mm 0.0 W/m2 CLR
02:13 16.1 °C 14.1 °C 1019.9 hPa Calm     88 % 0.0 mm 0.0 W/m2 CLR
02:18 16.1 °C 14.1 °C 1019.9 hPa Calm     88 % 0.0 mm 0.0 W/m2 CLR
02:23 15.6 °C 13.4 °C 1019.9 hPa Calm     87 % 0.0 mm 0.0 W/m2 CLR
02:28 15.6 °C 13.6 °C 1019.9 hPa Calm     88 % 0.0 mm 0.0 W/m2 CLR
02:33 15.6 °C 13.4 °C 1019.9 hPa Calm     87 % 0.0 mm 0.0 W/m2 CLR
02:38 15.6 °C 13.4 °C 1019.9 hPa Calm     87 % 0.0 mm 0.0 W/m2 CLR
02:43 15.6 °C 13.4 °C 1019.9 hPa Calm     87 % 0.0 mm 0.0 W/m2 CLR
02:48 15.6 °C 13.6 °C 1019.9 hPa Calm     88 % 0.0 mm 0.0 W/m2 CLR
02:53 15.0 °C 13.0 °C 1020.2 hPa Calm     88 % 0.0 mm 0.0 W/m2 CLR
02:58 15.0 °C 13.0 °C 1020.2 hPa Calm     88 % 0.0 mm 0.0 W/m2 CLR
03:03 15.6 °C 13.6 °C 1019.9 hPa Calm     88 % 0.0 mm 0.0 W/m2 CLR
03:08 15.6 °C 13.7 °C 1019.9 hPa Calm     89 % 0.0 mm 0.0 W/m2 CLR
03:13 15.6 °C 13.7 °C 1019.9 hPa Calm     89 % 0.0 mm 0.0 W/m2 CLR
03:18 15.6 °C 13.7 °C 1019.9 hPa Calm     89 % 0.0 mm 0.0 W/m2 CLR
03:23 15.6 °C 13.7 °C 1019.9 hPa Calm     89 % 0.0 mm 0.0 W/m2 CLR
03:28 16.1 °C 14.3 °C 1020.2 hPa SSE 16.7 km/h 16.7 km/h 89 % 0.0 mm 0.0 W/m2 CLR
03:33 16.1 °C 14.4 °C 1020.2 hPa South 16.7 km/h 16.7 km/h 90 % 0.0 mm 0.0 W/m2 CLR
03:38 16.7 °C 15.0 °C 1020.2 hPa Calm     90 % 0.0 mm 0.0 W/m2 CLR
03:43 16.1 °C 14.4 °C 1020.2 hPa South 13.0 km/h 13.0 km/h 90 % 0.0 mm 0.0 W/m2 CLR
03:48 16.1 °C 14.4 °C 1020.2 hPa SSE 9.3 km/h 9.3 km/h 90 % 0.0 mm 0.0 W/m2 CLR
03:53 16.1 °C 14.4 °C 1020.2 hPa Calm     90 % 0.0 mm 0.0 W/m2 CLR
03:58 16.1 °C 14.4 °C 1020.2 hPa SSE 1.9 km/h   90 % 0.0 mm 0.0 W/m2 CLR
04:03 16.1 °C 14.4 °C 1020.2 hPa SE 11.1 km/h 11.1 km/h 90 % 0.0 mm 0.0 W/m2 CLR
04:04 16.1 °C 14.4 °C 1020.2 hPa SSE 7.4 km/h 7.4 km/h 90 % 0.0 mm 0.0 W/m2 CLR
04:09 16.1 °C 14.4 °C 1020.2 hPa SSE 11.1 km/h 11.1 km/h 90 % 0.0 mm 0.0 W/m2 CLR
04:14 16.1 °C 14.4 °C 1020.2 hPa Calm     90 % 0.0 mm 0.0 W/m2 CLR
04:19 16.1 °C 14.3 °C 1020.2 hPa Calm     89 % 0.0 mm 0.0 W/m2 CLR
04:24 16.1 °C 14.3 °C 1020.2 hPa SSE 3.7 km/h   89 % 0.0 mm 0.0 W/m2 CLR
04:29 16.1 °C 14.4 °C 1020.2 hPa Calm     90 % 0.0 mm 0.0 W/m2 CLR
04:34 16.1 °C 14.4 °C 1020.2 hPa Calm     90 % 0.0 mm 0.0 W/m2 CLR
04:39 16.1 °C 14.4 °C 1020.2 hPa South 6.4 km/h 6.4 km/h 90 % 0.0 mm 0.0 W/m2 CLR
04:44 16.7 °C 15.0 °C 1020.2 hPa South 11.1 km/h 11.1 km/h 90 % 0.0 mm 0.0 W/m2 CLR
04:49 16.1 °C 14.1 °C 1020.2 hPa SSW 16.7 km/h 16.7 km/h 88 % 0.0 mm 0.0 W/m2 CLR
04:54 16.1 °C 13.9 °C 1020.2 hPa South 11.1 km/h 11.1 km/h 87 % 0.0 mm 0.0 W/m2 CLR
04:59 16.1 °C 13.6 °C 1020.2 hPa South 13.0 km/h 13.0 km/h 85 % 0.0 mm 0.0 W/m2 CLR
05:04 16.7 °C 13.9 °C 1020.2 hPa South 11.1 km/h 11.1 km/h 84 % 0.0 mm 0.0 W/m2 CLR
05:09 16.7 °C 13.8 °C 1020.5 hPa SSE 13.0 km/h 13.0 km/h 83 % 0.0 mm 0.0 W/m2 CLR
05:14 16.7 °C 13.6 °C 1020.5 hPa SSW 13.0 km/h 13.0 km/h 82 % 0.0 mm 0.0 W/m2 CLR
05:19 16.7 °C 13.6 °C 1020.5 hPa SSW 9.3 km/h   82 % 0.0 mm 0.0 W/m2 CLR
05:24 16.7 °C 13.4 °C 1020.5 hPa Calm     81 % 0.0 mm 0.0 W/m2 CLR
05:29 16.1 °C 12.8 °C 1020.5 hPa Calm     81 % 0.0 mm 0.0 W/m2 CLR
05:34 16.1 °C 12.8 °C 1020.5 hPa Calm     81 % 0.0 mm 0.0 W/m2 CLR
05:39 16.1 °C 12.8 °C 1020.5 hPa Calm     81 % 0.0 mm 0.0 W/m2 CLR
05:44 15.6 °C 12.5 °C 1020.5 hPa Calm     82 % 0.0 mm 0.0 W/m2 CLR
05:49 15.0 °C 11.9 °C 1020.5 hPa Calm     82 % 0.0 mm 0.0 W/m2 CLR
05:54 15.0 °C 11.8 °C 1020.5 hPa Calm     81 % 0.0 mm 0.0 W/m2 CLR
05:59 14.4 °C 11.2 °C 1020.5 hPa Calm     81 % 0.0 mm 0.0 W/m2 CLR
06:00 14.4 °C 11.2 °C 1020.5 hPa Calm     81 % 0.0 mm 0.0 W/m2 CLR
06:05 14.4 °C 11.2 °C 1020.5 hPa Calm     81 % 0.0 mm 0.0 W/m2 CLR
06:10 13.9 °C 10.7 °C 1020.5 hPa Calm     81 % 0.0 mm 0.0 W/m2 CLR
06:15 13.9 °C 10.9 °C 1020.5 hPa Calm     82 % 0.0 mm 0.0 W/m2 CLR
06:20 13.9 °C 10.9 °C 1020.2 hPa Calm     82 % 0.0 mm 0.0 W/m2 CLR
06:25 13.9 °C 10.9 °C 1020.5 hPa Calm     82 % 0.0 mm 0.0 W/m2 CLR
06:30 13.3 °C 10.3 °C 1020.5 hPa Calm     82 % 0.0 mm 0.0 W/m2 CLR
06:35 13.3 °C 10.5 °C 1020.5 hPa Calm     83 % 0.0 mm 0.0 W/m2 CLR
06:40 13.3 °C 10.5 °C 1020.5 hPa Calm     83 % 0.0 mm 0.0 W/m2 CLR
06:45 13.3 °C 10.5 °C 1020.5 hPa Calm     83 % 0.0 mm 0.0 W/m2 CLR
06:50 13.3 °C 10.5 °C 1020.5 hPa Calm     83 % 0.0 mm 0.0 W/m2 CLR
06:55 13.3 °C 10.5 °C 1020.5 hPa Calm     83 % 0.0 mm 0.0 W/m2 CLR
07:00 13.3 °C 10.5 °C 1020.5 hPa Calm     83 % 0.0 mm 0.0 W/m2 CLR
07:05 13.3 °C 10.5 °C 1020.5 hPa Calm     83 % 0.0 mm 0.0 W/m2 CLR
07:10 13.3 °C 10.7 °C 1020.5 hPa Calm     84 % 0.0 mm 0.0 W/m2 CLR
07:15 13.3 °C 10.7 °C 1020.5 hPa Calm     84 % 0.0 mm 0.0 W/m2 CLR
07:20 12.8 °C 10.2 °C 1020.9 hPa Calm     84 % 0.0 mm 0.0 W/m2 CLR
07:25 12.8 °C 10.3 °C 1020.5 hPa Calm     85 % 0.0 mm 0.0 W/m2 CLR
07:30 12.8 °C 10.3 °C 1020.5 hPa Calm     85 % 0.0 mm 0.0 W/m2 CLR
07:35 12.8 °C 10.5 °C 1020.9 hPa Calm     86 % 0.0 mm 0.0 W/m2 CLR
07:40 12.8 °C 10.5 °C 1020.9 hPa Calm     86 % 0.0 mm 0.0 W/m2 OVC
07:45 12.8 °C 10.5 °C 1020.9 hPa Calm     86 % 0.0 mm 0.0 W/m2 OVC
07:50 12.8 °C 10.5 °C 1020.9 hPa Calm     86 % 0.0 mm 5.0 W/m2 OVC
07:55 12.8 °C 10.5 °C 1020.9 hPa Calm     86 % 0.0 mm 7.0 W/m2 BKN
08:00 12.8 °C 10.7 °C 1020.9 hPa Calm     87 % 0.0 mm 12.0 W/m2 BKN
08:05 12.8 °C 10.7 °C 1020.9 hPa Calm     87 % 0.0 mm 16.0 W/m2 BKN
08:10 12.8 °C 10.7 °C 1020.9 hPa Calm     87 % 0.0 mm 26.0 W/m2 BKN
08:15 12.8 °C 10.7 °C 1020.9 hPa Calm     87 % 0.0 mm 46.0 W/m2 BKN
08:20 12.8 °C 10.8 °C 1020.9 hPa Calm     88 % 0.0 mm 77.0 W/m2 FEW
08:25 12.8 °C 10.8 °C 1020.9 hPa Calm     88 % 0.0 mm 105.0 W/m2 CLR
08:30 13.3 °C 11.4 °C 1020.9 hPa Calm     88 % 0.0 mm 127.0 W/m2 CLR
08:36 13.3 °C 11.2 °C 1021.2 hPa Calm     87 % 0.0 mm 127.0 W/m2 CLR
08:41 13.9 °C 11.8 °C 1021.2 hPa Calm     87 % 0.0 mm 100.0 W/m2 CLR
08:46 14.4 °C 12.3 °C 1021.2 hPa Calm     87 % 0.0 mm 104.0 W/m2 CLR
08:51 14.4 °C 12.3 °C 1021.2 hPa Calm     87 % 0.0 mm 86.0 W/m2 CLR
08:56 15.0 °C 12.7 °C 1021.2 hPa Calm     86 % 0.0 mm 88.0 W/m2 CLR
09:01 15.0 °C 12.7 °C 1021.2 hPa Calm     86 % 0.0 mm 97.0 W/m2 CLR
09:06 15.0 °C 12.7 °C 1021.2 hPa Calm     86 % 0.0 mm 104.0 W/m2 CLR
09:11 15.6 °C 13.1 °C 1021.2 hPa Calm     85 % 0.0 mm 105.0 W/m2 CLR
09:16 15.6 °C 12.9 °C 1021.6 hPa Calm     84 % 0.0 mm 104.0 W/m2 CLR
09:21 16.1 °C 13.2 °C 1021.6 hPa Calm     83 % 0.0 mm 102.0 W/m2 CLR
09:26 16.1 °C 13.2 °C 1021.6 hPa Calm     83 % 0.0 mm 97.0 W/m2 CLR
09:31 16.1 °C 13.2 °C 1021.6 hPa Calm     83 % 0.0 mm 86.0 W/m2 CLR
09:36 16.1 °C 13.1 °C 1021.9 hPa Calm     82 % 0.0 mm 79.0 W/m2 CLR
09:41 16.7 °C 13.4 °C 1021.9 hPa Calm     81 % 0.0 mm 81.0 W/m2 FEW
09:46 16.7 °C 13.0 °C 1021.9 hPa Calm     79 % 0.0 mm 84.0 W/m2 FEW
09:51 16.7 °C 12.6 °C 1022.2 hPa WSW 9.3 km/h 9.3 km/h 77 % 0.0 mm 104.0 W/m2 CLR
09:56 16.7 °C 12.4 °C 1022.2 hPa SSW 3.7 km/h   76 % 0.0 mm 120.0 W/m2 CLR
10:01 17.2 °C 12.7 °C 1022.2 hPa WSW 3.7 km/h 3.7 km/h 75 % 0.0 mm 139.0 W/m2 CLR
10:06 17.8 °C 13.1 °C 1022.2 hPa Calm     74 % 0.0 mm 116.0 W/m2 CLR
10:11 17.8 °C 12.9 °C 1022.6 hPa SW 7.4 km/h 7.4 km/h 73 % 0.0 mm 128.0 W/m2 CLR
10:16 17.8 °C 12.7 °C 1022.6 hPa SW 18.5 km/h 18.5 km/h 72 % 0.0 mm 135.0 W/m2 CLR
10:21 18.3 °C 13.2 °C 1022.6 hPa SSW 8.0 km/h 8.0 km/h 72 % 0.0 mm 176.0 W/m2 CLR
10:26 18.3 °C 13.0 °C 1022.6 hPa SSW 11.1 km/h 11.1 km/h 71 % 0.0 mm 209.0 W/m2 CLR
10:31 18.3 °C 13.2 °C 1022.6 hPa SW 7.4 km/h 7.4 km/h 72 % 0.0 mm 144.0 W/m2 CLR
10:36 18.3 °C 13.0 °C 1022.9 hPa SSW 13.0 km/h 13.0 km/h 71 % 0.0 mm 100.0 W/m2 CLR
10:41 18.3 °C 13.0 °C 1022.9 hPa SW 11.1 km/h 11.1 km/h 71 % 0.0 mm 84.0 W/m2 CLR
10:46 18.3 °C 13.2 °C 1022.9 hPa South 9.7 km/h 9.7 km/h 72 % 0.0 mm 79.0 W/m2 CLR
10:51 17.8 °C 13.1 °C 1022.9 hPa SSW 11.1 km/h 11.1 km/h 74 % 0.0 mm 84.0 W/m2 FEW
10:56 17.8 °C 13.7 °C 1022.9 hPa SSW 5.6 km/h 5.6 km/h 77 % 0.3 mm 91.0 W/m2 RA
11:01 17.2 °C 13.6 °C 1023.2 hPa South 9.3 km/h 9.3 km/h 79 % 0.3 mm 67.0 W/m2 CLR
11:06 17.2 °C 13.3 °C 1022.9 hPa East 5.6 km/h   78 % 0.3 mm 67.0 W/m2 FEW
11:11 16.7 °C 13.4 °C 1022.9 hPa Calm     81 % 0.5 mm 69.0 W/m2 RA
11:16 16.7 °C 13.6 °C 1023.2 hPa Calm     82 % 0.5 mm 58.0 W/m2 FEW
11:22 16.7 °C 13.8 °C 1023.2 hPa Calm     83 % 0.5 mm 67.0 W/m2 SCT
11:26 16.7 °C 13.8 °C 1023.2 hPa Calm     83 % 0.5 mm 67.0 W/m2 SCT
11:32 16.7 °C 13.8 °C 1023.2 hPa Calm     83 % 0.5 mm 105.0 W/m2 FEW
11:37 17.2 °C 14.5 °C 1023.2 hPa Calm     84 % 0.5 mm 127.0 W/m2 CLR
11:41 17.2 °C 14.5 °C 1023.2 hPa NNW 1.9 km/h   84 % 0.5 mm 188.0 W/m2 CLR
11:47 17.2 °C 14.7 °C 1023.2 hPa Calm     85 % 0.5 mm 234.0 W/m2 CLR
11:52 17.8 °C 15.2 °C 1023.2 hPa Calm     85 % 0.5 mm 142.0 W/m2 CLR
11:57 17.2 °C 14.5 °C 1023.2 hPa North 1.9 km/h   84 % 0.3 mm 153.0 W/m2 CLR
12:02 17.8 °C 14.8 °C 1023.2 hPa Calm     83 % 0.3 mm 213.0 W/m2 CLR
12:07 17.8 °C 14.8 °C 1023.2 hPa Calm     83 % 0.3 mm 265.0 W/m2 CLR
12:12 17.8 °C 14.7 °C 1022.9 hPa Calm   0.2 km/h 82 % 0.0 mm 415.0 W/m2 CLR
12:17 18.3 °C 15.0 °C 1023.2 hPa Calm     81 % 0.0 mm 404.0 W/m2 CLR
12:22 18.3 °C 15.0 °C 1022.9 hPa NNW 3.7 km/h 3.9 km/h 81 % 0.0 mm 754.0 W/m2 CLR
12:27 18.9 °C 14.9 °C 1022.9 hPa NNW 5.6 km/h   78 % 0.0 mm 612.0 W/m2 CLR
12:32 18.3 °C 14.4 °C 1022.9 hPa Calm     78 % 0.0 mm 329.0 W/m2 CLR
12:37 18.9 °C 14.6 °C 1022.9 hPa Calm     76 % 0.0 mm 325.0 W/m2 CLR
12:42 19.4 °C 15.1 °C 1022.9 hPa Calm     76 % 0.0 mm 339.0 W/m2 CLR
12:47 18.9 °C 14.6 °C 1022.9 hPa Calm     76 % 0.0 mm 397.0 W/m2 CLR
12:52 19.4 °C 15.1 °C 1023.2 hPa Calm     76 % 0.0 mm 397.0 W/m2 CLR
12:57 19.4 °C 14.7 °C 1022.9 hPa Calm     74 % 0.0 mm 823.0 W/m2 CLR
13:02 20.0 °C 14.8 °C 1022.9 hPa Calm     72 % 0.0 mm 793.0 W/m2 CLR
13:07 20.0 °C 15.4 °C 1023.2 hPa Calm     75 % 0.0 mm 782.0 W/m2 CLR
13:12 20.6 °C 15.1 °C 1022.9 hPa Calm     71 % 0.0 mm 807.0 W/m2 CLR
13:17 21.1 °C 15.0 °C 1022.9 hPa Calm     68 % 0.0 mm 802.0 W/m2 CLR
13:22 21.1 °C 14.7 °C 1022.9 hPa Calm     67 % 0.0 mm 788.0 W/m2 CLR
13:27 21.1 °C 14.7 °C 1022.9 hPa Calm     67 % 0.0 mm 932.0 W/m2 CLR
13:32 21.1 °C 14.1 °C 1022.9 hPa Calm     64 % 0.0 mm 357.0 W/m2 CLR
13:37 20.6 °C 13.7 °C 1022.9 hPa Calm     65 % 0.0 mm 316.0 W/m2 CLR
13:42 21.1 °C 14.5 °C 1022.9 hPa North 7.4 km/h 7.4 km/h 66 % 0.0 mm 373.0 W/m2 CLR
13:47 21.1 °C 14.7 °C 1023.2 hPa NNW 5.6 km/h 5.6 km/h 67 % 0.0 mm 366.0 W/m2 CLR
13:52 21.1 °C 14.7 °C 1023.2 hPa WNW 8.0 km/h 8.0 km/h 67 % 0.0 mm 381.0 W/m2 CLR
13:57 21.1 °C 14.5 °C 1023.2 hPa Calm     66 % 0.0 mm 355.0 W/m2 CLR
14:02 21.1 °C 15.0 °C 1023.2 hPa NNW 5.6 km/h 5.6 km/h 68 % 0.0 mm 427.0 W/m2 CLR
14:07 21.1 °C 15.0 °C 1023.2 hPa North 16.7 km/h 16.7 km/h 68 % 0.0 mm 320.0 W/m2 CLR
14:12 21.1 °C 15.4 °C 1023.2 hPa WNW 14.8 km/h 14.8 km/h 70 % 0.0 mm 234.0 W/m2 CLR
14:17 20.6 °C 14.9 °C 1023.2 hPa WNW 11.1 km/h 11.1 km/h 70 % 0.0 mm 229.0 W/m2 CLR
14:22 20.6 °C 15.1 °C 1023.2 hPa WNW 14.5 km/h 14.5 km/h 71 % 0.0 mm 195.0 W/m2 CLR
14:27 20.6 °C 15.1 °C 1023.2 hPa West 16.7 km/h 16.7 km/h 71 % 0.0 mm 206.0 W/m2 CLR
14:32 20.0 °C 15.0 °C 1023.2 hPa WNW 19.3 km/h 19.3 km/h 73 % 0.0 mm 248.0 W/m2 CLR
14:37 20.0 °C 15.4 °C 1023.2 hPa West 16.1 km/h 16.1 km/h 75 % 0.0 mm 285.0 W/m2 CLR
14:42 20.0 °C 15.8 °C 1022.9 hPa West 18.5 km/h 18.5 km/h 77 % 0.0 mm 306.0 W/m2 CLR
14:47 20.0 °C 16.2 °C 1022.9 hPa West 18.5 km/h 18.5 km/h 79 % 0.0 mm 315.0 W/m2 CLR
14:52 20.0 °C 16.1 °C 1022.9 hPa West 16.7 km/h 16.7 km/h 78 % 0.0 mm 671.0 W/m2 CLR
14:57 20.0 °C 16.1 °C 1022.9 hPa West 17.7 km/h 17.7 km/h 78 % 0.0 mm 250.0 W/m2 CLR
15:02 19.4 °C 15.7 °C 1022.9 hPa West 16.7 km/h 16.7 km/h 79 % 0.0 mm 232.0 W/m2 CLR
15:07 19.4 °C 15.9 °C 1023.2 hPa WSW 16.7 km/h 16.7 km/h 80 % 0.0 mm 206.0 W/m2 CLR
15:12 18.9 °C 15.2 °C 1023.2 hPa NW 11.1 km/h 11.1 km/h 79 % 0.0 mm 193.0 W/m2 CLR
15:13 18.9 °C 15.2 °C 1023.2 hPa WNW 12.9 km/h 12.9 km/h 79 % 0.0 mm 192.0 W/m2 CLR
15:18 18.9 °C 15.4 °C 1023.2 hPa NW 9.7 km/h 9.7 km/h 80 % 0.0 mm 165.0 W/m2 CLR
15:23 18.9 °C 15.4 °C 1023.2 hPa WNW 16.7 km/h 16.7 km/h 80 % 0.0 mm 132.0 W/m2 CLR
15:28 18.9 °C 15.6 °C 1023.2 hPa West 4.8 km/h 4.8 km/h 81 % 0.0 mm 127.0 W/m2 CLR
15:33 18.9 °C 15.6 °C 1023.2 hPa Calm     81 % 0.0 mm 141.0 W/m2 CLR
15:38 18.9 °C 15.7 °C 1023.6 hPa Calm     82 % 0.0 mm 167.0 W/m2 CLR
15:44 18.9 °C 15.7 °C 1023.2 hPa Calm     82 % 0.0 mm 165.0 W/m2 CLR
15:49 18.9 °C 15.7 °C 1023.2 hPa Calm     82 % 0.0 mm 153.0 W/m2 CLR
15:54 18.3 °C 15.2 °C 1022.9 hPa Calm     82 % 0.0 mm 155.0 W/m2 CLR
15:59 18.3 °C 15.2 °C 1022.6 hPa Calm     82 % 0.0 mm 169.0 W/m2 CLR
16:04 18.3 °C 15.4 °C 1022.6 hPa Calm     83 % 0.0 mm 146.0 W/m2 CLR
16:09 18.3 °C 15.2 °C 1022.6 hPa Calm     82 % 0.0 mm 146.0 W/m2 CLR
16:14 18.3 °C 15.0 °C 1022.6 hPa North 3.7 km/h 3.7 km/h 81 % 0.0 mm 190.0 W/m2 CLR
16:19 18.9 °C 15.7 °C 1022.9 hPa Calm     82 % 0.0 mm 171.0 W/m2 CLR
16:24 18.3 °C 15.2 °C 1022.9 hPa NNE 3.2 km/h 3.2 km/h 82 % 0.0 mm 100.0 W/m2 CLR
16:29 18.3 °C 15.0 °C 1022.6 hPa Calm   0.5 km/h 81 % 0.0 mm 109.0 W/m2 CLR
16:34 18.3 °C 15.0 °C 1022.6 hPa NNW 7.4 km/h 7.4 km/h 81 % 0.0 mm 97.0 W/m2 CLR
16:39 18.3 °C 15.2 °C 1022.6 hPa Calm     82 % 0.0 mm 88.0 W/m2 CLR
16:44 18.3 °C 15.2 °C 1022.2 hPa Calm     82 % 0.0 mm 100.0 W/m2 CLR
16:49 18.3 °C 15.2 °C 1022.6 hPa Calm     82 % 0.0 mm 100.0 W/m2 CLR
16:54 18.3 °C 15.2 °C 1022.2 hPa Calm     82 % 0.0 mm 93.0 W/m2 CLR
16:59 18.3 °C 15.0 °C 1022.6 hPa Calm     81 % 0.0 mm 76.0 W/m2 CLR
17:04 18.3 °C 15.0 °C 1022.2 hPa Calm     81 % 0.0 mm 98.0 W/m2 FEW
17:09 18.3 °C 15.0 °C 1022.2 hPa Calm     81 % 0.0 mm 88.0 W/m2 CLR
17:14 18.3 °C 15.0 °C 1022.2 hPa Calm     81 % 0.0 mm 86.0 W/m2 CLR
17:19 18.3 °C 15.0 °C 1022.2 hPa Calm     81 % 0.0 mm 77.0 W/m2 CLR
17:24 18.3 °C 14.8 °C 1022.2 hPa Calm     80 % 0.0 mm 67.0 W/m2 FEW
17:29 18.3 °C 15.0 °C 1022.2 hPa Calm     81 % 0.0 mm 56.0 W/m2 FEW
17:34 18.3 °C 15.0 °C 1022.2 hPa Calm     81 % 0.0 mm 49.0 W/m2 SCT
17:39 18.3 °C 14.8 °C 1022.2 hPa Calm     80 % 0.0 mm 44.0 W/m2 SCT
17:44 18.9 °C 15.4 °C 1022.2 hPa Calm     80 % 0.0 mm 53.0 W/m2 SCT
17:49 18.9 °C 15.4 °C 1022.6 hPa Calm     80 % 0.0 mm 69.0 W/m2 SCT
17:54 18.9 °C 15.4 °C 1022.2 hPa Calm     80 % 0.0 mm 74.0 W/m2 FEW
17:59 18.9 °C 15.6 °C 1022.2 hPa Calm     81 % 0.0 mm 88.0 W/m2 FEW
18:04 18.9 °C 15.6 °C 1022.2 hPa Calm     81 % 0.0 mm 120.0 W/m2 CLR
18:09 18.9 °C 15.6 °C 1022.2 hPa Calm     81 % 0.0 mm 121.0 W/m2 CLR
18:14 18.9 °C 15.6 °C 1022.2 hPa Calm     81 % 0.0 mm 95.0 W/m2 CLR
18:19 18.9 °C 15.4 °C 1022.2 hPa Calm     80 % 0.0 mm 88.0 W/m2 CLR
18:24 18.9 °C 15.4 °C 1021.9 hPa North 5.6 km/h 5.6 km/h 80 % 0.0 mm 90.0 W/m2 CLR
18:29 18.9 °C 15.6 °C 1021.9 hPa NNE 8.0 km/h 8.0 km/h 81 % 0.0 mm 91.0 W/m2 CLR
18:34 18.9 °C 15.4 °C 1021.9 hPa North 11.1 km/h 11.1 km/h 80 % 0.0 mm 104.0 W/m2 CLR
18:39 18.9 °C 15.2 °C 1021.9 hPa NNE 5.6 km/h 5.6 km/h 79 % 0.0 mm 116.0 W/m2 CLR
18:49 18.9 °C 14.9 °C 1022.2 hPa Calm     78 % 0.0 mm 105.0 W/m2 CLR
18:54 19.4 °C 15.5 °C 1022.2 hPa Calm     78 % 0.0 mm 77.0 W/m2 CLR
18:59 18.9 °C 14.8 °C 1022.2 hPa Calm     77 % 0.0 mm 62.0 W/m2 SCT
19:04 18.9 °C 14.9 °C 1021.9 hPa Calm     78 % 0.0 mm 53.0 W/m2 SCT
19:09 18.9 °C 14.9 °C 1022.2 hPa Calm     78 % 0.0 mm 49.0 W/m2 SCT
19:14 18.3 °C 14.4 °C 1022.2 hPa Calm     78 % 0.0 mm 40.0 W/m2 BKN
19:19 18.3 °C 14.4 °C 1022.2 hPa Calm     78 % 0.0 mm 28.0 W/m2 BKN
19:20 18.3 °C 14.4 °C 1021.9 hPa Calm     78 % 0.0 mm 25.0 W/m2 BKN
19:25 17.8 °C 13.9 °C 1022.2 hPa Calm     78 % 0.0 mm 16.0 W/m2 BKN
19:30 17.2 °C 13.6 °C 1022.2 hPa Calm     79 % 0.0 mm 12.0 W/m2 BKN
19:35 17.2 °C 13.6 °C 1022.2 hPa Calm     79 % 0.0 mm 9.0 W/m2 BKN
19:40 16.7 °C 13.2 °C 1021.9 hPa Calm     80 % 0.0 mm 7.0 W/m2 BKN
19:45 16.1 °C 12.7 °C 1021.9 hPa Calm     80 % 0.0 mm 5.0 W/m2 OVC
19:50 16.1 °C 12.7 °C 1022.2 hPa Calm     80 % 0.0 mm 0.0 W/m2 OVC
19:55 15.6 °C 12.3 °C 1022.2 hPa Calm     81 % 0.0 mm 0.0 W/m2 OVC
19:56 15.6 °C 12.3 °C 1022.2 hPa Calm     81 % 0.0 mm 0.0 W/m2 OVC
20:01 15.6 °C 12.3 °C 1022.2 hPa Calm     81 % 0.0 mm 0.0 W/m2 CLR
20:06 15.0 °C 11.9 °C 1022.2 hPa Calm     82 % 0.0 mm 0.0 W/m2 CLR
20:11 15.0 °C 11.9 °C 1022.2 hPa Calm     82 % 0.0 mm 0.0 W/m2 CLR
20:16 15.0 °C 12.1 °C 1022.2 hPa Calm     83 % 0.0 mm 0.0 W/m2 CLR
20:21 14.4 °C 11.4 °C 1022.2 hPa Calm     82 % 0.0 mm 0.0 W/m2 CLR
20:26 14.4 °C 11.6 °C 1022.2 hPa Calm     83 % 0.0 mm 0.0 W/m2 CLR
20:31 14.4 °C 11.8 °C 1022.2 hPa Calm     84 % 0.0 mm 0.0 W/m2 CLR
20:36 13.9 °C 11.2 °C 1022.6 hPa Calm     84 % 0.0 mm 0.0 W/m2 CLR
20:41 13.9 °C 11.4 °C 1022.6 hPa Calm     85 % 0.0 mm 0.0 W/m2 CLR
20:46 13.9 °C 11.4 °C 1022.6 hPa Calm     85 % 0.0 mm 0.0 W/m2 CLR
20:51 13.3 °C 11.1 °C 1022.6 hPa Calm     86 % 0.0 mm 0.0 W/m2 CLR
20:56 13.3 °C 11.1 °C 1022.6 hPa Calm     86 % 0.0 mm 0.0 W/m2 CLR
21:01 13.3 °C 11.1 °C 1022.9 hPa Calm     86 % 0.0 mm 0.0 W/m2 CLR
21:06 13.3 °C 11.1 °C 1023.2 hPa Calm     86 % 0.0 mm 0.0 W/m2 CLR
21:11 13.3 °C 11.1 °C 1023.2 hPa Calm     86 % 0.0 mm 0.0 W/m2 CLR
21:16 13.9 °C 11.6 °C 1023.2 hPa Calm     86 % 0.0 mm 0.0 W/m2 CLR
21:21 13.9 °C 11.8 °C 1023.6 hPa Calm     87 % 0.0 mm 0.0 W/m2 CLR
21:26 13.9 °C 11.8 °C 1023.6 hPa Calm     87 % 0.0 mm 0.0 W/m2 CLR
21:31 13.9 °C 11.9 °C 1023.6 hPa Calm     88 % 0.0 mm 0.0 W/m2 CLR
21:36 13.9 °C 11.9 °C 1023.6 hPa Calm     88 % 0.0 mm 0.0 W/m2 CLR
21:41 13.3 °C 11.4 °C 1023.6 hPa Calm     88 % 0.0 mm 0.0 W/m2 CLR
21:46 13.3 °C 11.4 °C 1023.6 hPa Calm     88 % 0.0 mm 0.0 W/m2 CLR
21:51 13.3 °C 11.4 °C 1023.6 hPa Calm     88 % 0.0 mm 0.0 W/m2 CLR
21:56 13.3 °C 11.6 °C 1023.6 hPa Calm     89 % 0.0 mm 0.0 W/m2 CLR
22:01 13.3 °C 11.6 °C 1023.6 hPa Calm     89 % 0.0 mm 0.0 W/m2 CLR
22:06 13.3 °C 11.6 °C 1023.6 hPa Calm     89 % 0.0 mm 0.0 W/m2 CLR
22:11 13.3 °C 11.6 °C 1023.9 hPa Calm     89 % 0.0 mm 0.0 W/m2 CLR
22:16 13.3 °C 11.6 °C 1023.9 hPa Calm     89 % 0.0 mm 0.0 W/m2 CLR
22:21 13.3 °C 11.6 °C 1023.9 hPa Calm     89 % 0.0 mm 0.0 W/m2 CLR
22:26 13.3 °C 11.7 °C 1023.9 hPa Calm     90 % 0.0 mm 0.0 W/m2 CLR
22:31 12.8 °C 11.2 °C 1023.9 hPa Calm     90 % 0.0 mm 0.0 W/m2 CLR
22:36 13.3 °C 11.7 °C 1023.9 hPa Calm     90 % 0.0 mm 0.0 W/m2 CLR
22:41 13.3 °C 11.7 °C 1023.9 hPa Calm     90 % 0.0 mm 0.0 W/m2 CLR
22:46 13.3 °C 11.9 °C 1023.9 hPa Calm     91 % 0.0 mm 0.0 W/m2 CLR
22:51 13.3 °C 11.9 °C 1023.9 hPa Calm     91 % 0.0 mm 0.0 W/m2 CLR
22:56 13.3 °C 11.7 °C 1023.9 hPa Calm     90 % 0.0 mm 0.0 W/m2 CLR
23:01 13.9 °C 12.3 °C 1023.9 hPa Calm     90 % 0.0 mm 0.0 W/m2 CLR
23:06 13.9 °C 12.3 °C 1023.9 hPa Calm     90 % 0.0 mm 0.0 W/m2 CLR
23:11 13.9 °C 12.4 °C 1023.9 hPa Calm     91 % 0.0 mm 0.0 W/m2 CLR
23:16 13.9 °C 12.4 °C 1023.9 hPa Calm     91 % 0.0 mm 0.0 W/m2 CLR
23:21 13.3 °C 11.9 °C 1023.9 hPa Calm     91 % 0.0 mm 0.0 W/m2 CLR
23:26 13.3 °C 11.9 °C 1023.9 hPa Calm     91 % 0.0 mm 0.0 W/m2 CLR
23:31 13.3 °C 11.9 °C 1023.9 hPa Calm     91 % 0.0 mm 0.0 W/m2 CLR
23:32 13.3 °C 11.9 °C 1023.9 hPa Calm     91 % 0.0 mm 0.0 W/m2 CLR
23:37 13.3 °C 11.9 °C 1023.9 hPa Calm     91 % 0.0 mm 0.0 W/m2 CLR
23:42 13.3 °C 11.9 °C 1023.9 hPa Calm     91 % 0.0 mm 0.0 W/m2 CLR
23:47 13.3 °C 11.9 °C 1023.9 hPa Calm     91 % 0.0 mm 0.0 W/m2 CLR
23:52 13.3 °C 11.9 °C 1023.9 hPa Calm     91 % 0.0 mm 0.0 W/m2 CLR
23:57 13.3 °C 11.9 °C 1023.9 hPa Calm     91 % 0.0 mm 0.0 W/m2 CLR
Lo Temps de Massalio
Compliments of Weather Underground - 1.25 mb